createdAt,value
2017-11-12T01:36:03.921Z,2.82
2017-11-12T01:36:04.560Z,2.81
2017-11-12T01:36:05.093Z,2.79
2017-11-12T01:36:05.694Z,2.87
2017-11-12T01:36:06.308Z,2.85
2017-11-12T01:36:06.901Z,2.81
2017-11-12T01:43:45.536Z,2.84
2017-11-12T01:43:46.182Z,2.88
2017-11-12T01:43:47.359Z,2.82
2017-11-12T01:43:47.991Z,2.84
2017-11-12T01:43:48.474Z,2.85
2017-11-12T01:43:49.102Z,2.81
2017-11-12T01:43:49.679Z,2.79
2017-11-12T01:43:50.294Z,2.79
2017-11-12T01:43:50.861Z,2.70
2017-11-12T01:43:51.478Z,2.84
2017-11-12T01:47:52.945Z,2.91
2017-11-12T01:47:53.513Z,2.87
2017-11-12T01:47:54.111Z,2.85
2017-11-12T01:47:54.711Z,2.85
2017-11-12T01:47:55.316Z,2.89
2017-11-12T02:58:07.020Z,2.98
2017-11-12T02:58:08.079Z,3.00
2017-11-12T02:58:08.581Z,2.98
2017-11-12T02:58:09.179Z,2.98
2017-11-12T02:58:09.778Z,2.94
2017-11-12T02:58:10.379Z,3.05
2017-11-12T02:58:10.982Z,3.10
2017-11-12T02:58:11.578Z,2.98
2017-11-12T02:58:12.184Z,3.03
2017-11-12T02:58:12.788Z,3.02
2017-11-12T02:58:14.102Z,2.97
2017-11-12T04:15:41.102Z,2.97
2017-11-12T04:15:41.520Z,2.97
2017-11-12T04:15:42.115Z,2.88
2017-11-12T04:15:42.723Z,2.97
2017-11-12T04:15:43.355Z,2.97
2017-11-12T04:15:43.938Z,2.98
2017-11-12T04:15:44.516Z,3.00
2017-11-12T04:15:45.116Z,2.95
2017-11-12T04:15:45.712Z,2.94
2017-11-12T04:15:46.311Z,2.98
2017-11-12T04:15:46.937Z,3.02
2017-11-12T04:16:53.038Z,3.00
2017-11-12T04:16:53.631Z,2.98
2017-11-12T04:16:54.209Z,2.92
2017-11-12T04:16:54.820Z,2.98
2017-11-12T04:16:55.447Z,2.97
2017-11-12T04:19:28.241Z,3.03
2017-11-12T04:19:28.809Z,3.07
2017-11-12T04:19:29.409Z,3.10
2017-11-12T04:19:30.009Z,3.13
2017-11-12T04:19:30.608Z,3.06
2017-11-12T04:19:31.238Z,3.05
2017-11-12T04:19:31.905Z,3.12
2017-11-12T04:19:32.648Z,3.10
2017-11-12T04:19:33.009Z,3.07
2017-11-12T04:19:33.607Z,3.02
2017-11-12T04:19:34.207Z,3.07
2017-11-12T04:19:34.821Z,3.10
2017-11-12T04:21:53.672Z,3.13
2017-11-12T05:05:39.955Z,3.43
2017-11-12T05:05:40.544Z,3.44
2017-11-12T05:07:38.237Z,3.50
2017-11-12T05:07:38.805Z,3.49
2017-11-12T05:07:39.403Z,3.57
2017-11-12T05:07:40.003Z,3.52
2017-11-12T05:07:41.625Z,3.53
2017-11-12T05:07:42.107Z,3.52
2017-11-12T05:07:43.557Z,3.52
2017-11-12T05:07:44.061Z,3.52
2017-11-12T05:07:44.682Z,3.52
2017-11-12T05:07:45.259Z,3.53
2017-11-12T05:07:45.866Z,3.53
2017-11-12T05:07:46.457Z,3.49
2017-11-12T05:07:47.063Z,3.49
2017-11-12T05:07:47.657Z,3.53
2017-11-12T05:07:48.256Z,3.49
2017-11-12T05:11:00.587Z,3.49
2017-11-12T05:11:01.153Z,3.47
2017-11-12T05:11:01.757Z,3.47
2017-11-12T05:11:02.359Z,3.53
2017-11-12T05:11:02.951Z,3.52
2017-11-12T05:11:03.553Z,3.53
2017-11-12T05:11:04.153Z,3.49
2017-11-12T05:11:04.752Z,3.53
2017-11-12T05:11:05.353Z,3.50
2017-11-12T05:11:05.952Z,3.53
2017-11-12T05:11:06.552Z,3.50
2017-11-12T05:11:07.152Z,3.47
2017-11-12T05:15:53.673Z,3.44
2017-11-12T05:15:54.188Z,3.54
2017-11-12T05:15:54.785Z,3.49
2017-11-12T05:15:55.378Z,3.53
2017-11-12T05:15:55.978Z,3.53
2017-11-12T05:15:56.593Z,3.50
2017-11-12T05:15:57.176Z,3.43
2017-11-12T05:15:57.776Z,3.52
2017-11-12T05:15:58.376Z,3.46
2017-11-12T05:16:51.932Z,3.57
2017-11-12T05:16:52.490Z,3.49
2017-11-12T05:16:53.086Z,3.52
2017-11-12T05:16:53.687Z,3.50
2017-11-12T05:16:54.287Z,3.53
2017-11-12T05:16:54.915Z,3.52
2017-11-12T05:16:55.494Z,3.52
2017-11-12T05:16:56.086Z,3.54
2017-11-12T05:17:52.675Z,3.54
2017-11-12T05:17:53.249Z,3.57
2017-11-12T05:17:53.810Z,3.52
2017-11-12T05:20:26.942Z,3.54
2017-11-12T05:20:27.437Z,3.54
2017-11-12T05:20:28.032Z,3.50
2017-11-12T05:20:28.637Z,3.58
2017-11-12T05:20:29.235Z,3.65
2017-11-12T05:20:29.832Z,3.65
2017-11-12T05:20:30.433Z,3.52
2017-11-12T05:20:31.062Z,3.52
2017-11-12T05:20:31.646Z,3.65
2017-11-12T05:20:32.238Z,3.64
2017-11-12T05:20:32.829Z,3.64
2017-11-12T05:21:31.894Z,3.57
2017-11-12T05:21:32.449Z,3.64
2017-11-12T05:21:33.049Z,3.65
2017-11-12T05:21:33.653Z,3.64
2017-11-12T05:21:34.252Z,3.60
2017-11-12T05:21:34.860Z,3.61
2017-11-12T05:21:35.458Z,3.58
2017-11-12T05:21:36.052Z,3.64
2017-11-12T05:21:36.647Z,3.60
2017-11-12T05:21:37.249Z,3.64
2017-11-12T05:21:37.853Z,3.67
2017-11-12T05:21:38.449Z,3.62
2017-11-12T05:21:39.048Z,3.61
2017-11-12T05:21:39.648Z,3.62
2017-11-12T05:21:40.270Z,3.64
2017-11-12T05:21:40.846Z,3.68
2017-11-12T06:18:43.452Z,3.78
2017-11-12T06:18:44.027Z,3.78
2017-11-12T06:18:44.623Z,3.79
2017-11-12T06:18:45.219Z,3.88
2017-11-12T06:18:45.822Z,3.78
2017-11-12T06:18:46.420Z,3.76
2017-11-12T06:18:47.790Z,3.83
2017-11-12T06:18:48.287Z,3.79
2017-11-12T06:18:48.887Z,3.82
2017-11-12T06:18:49.489Z,3.83
2017-11-12T06:18:50.087Z,3.75
2017-11-12T06:21:20.252Z,3.80
2017-11-12T06:21:21.704Z,3.82
2017-11-12T06:21:22.208Z,3.78
2017-11-12T06:21:22.808Z,3.78
2017-11-12T07:14:20.372Z,4.06
2017-11-12T07:14:20.937Z,4.04
2017-11-12T07:14:21.537Z,4.12
2017-11-12T07:14:22.137Z,4.10
2017-11-12T07:14:22.737Z,4.10
2017-11-12T07:14:23.335Z,4.01
2017-11-12T07:14:23.934Z,3.98
2017-11-12T07:14:24.540Z,4.01
2017-11-12T07:17:26.884Z,4.10
2017-11-12T07:17:27.430Z,4.10
2017-11-12T07:17:28.031Z,4.12
2017-11-12T07:17:28.630Z,4.08
2017-11-12T07:17:29.235Z,4.08
2017-11-12T07:17:29.831Z,4.12
2017-11-12T07:17:30.430Z,4.18
2017-11-12T07:17:31.032Z,4.08
2017-11-12T07:17:31.629Z,4.14
2017-11-12T07:17:32.232Z,4.18
2017-11-12T07:17:32.833Z,4.15
2017-11-12T07:17:33.434Z,4.10
2017-11-12T07:28:18.824Z,4.59
2017-11-12T08:09:07.103Z,5.40
2017-11-12T08:09:07.605Z,5.48
2017-11-12T08:09:08.204Z,5.34
2017-11-12T08:09:08.803Z,5.48
2017-11-12T08:09:09.407Z,5.40
2017-11-12T08:09:10.003Z,5.48
2017-11-12T08:09:10.603Z,5.34
2017-11-12T08:09:11.204Z,5.48
2017-11-12T08:09:11.803Z,5.34
2017-11-12T08:09:12.404Z,5.41
2017-11-12T08:09:13.006Z,5.38
2017-11-12T08:09:13.604Z,5.34
2017-11-12T08:10:08.149Z,5.37
2017-11-12T08:10:08.722Z,5.35
2017-11-12T08:10:09.323Z,5.41
2017-11-12T08:10:09.923Z,5.35
2017-11-12T08:10:10.521Z,5.37
2017-11-12T08:10:11.120Z,5.40
2017-11-12T08:10:11.720Z,5.41
2017-11-12T08:12:24.050Z,5.40
2017-11-12T08:12:24.597Z,5.34
2017-11-12T08:12:25.196Z,5.28
2017-11-12T08:12:25.795Z,5.37
2017-11-12T08:12:26.404Z,5.30
2017-11-12T08:12:26.997Z,5.45
2017-11-12T08:12:27.598Z,5.30
2017-11-12T08:12:28.194Z,5.37
2017-11-12T08:12:28.795Z,5.30
2017-11-12T08:12:29.394Z,5.37
2017-11-12T08:12:29.994Z,5.35
2017-11-12T08:12:30.594Z,5.40
2017-11-12T08:13:29.676Z,5.34
2017-11-12T08:13:30.247Z,5.37
2017-11-12T08:13:30.853Z,5.35
2017-11-12T08:13:31.447Z,5.34
2017-11-12T08:13:32.045Z,5.40
2017-11-12T08:13:32.646Z,5.41
2017-11-12T08:13:33.251Z,5.41
2017-11-12T08:13:33.846Z,5.32
2017-11-12T08:13:34.446Z,5.35
2017-11-12T08:13:35.054Z,5.37
2017-11-12T08:13:35.645Z,5.37
2017-11-12T08:13:36.245Z,5.38
2017-11-12T08:13:36.850Z,5.40
2017-11-12T08:13:37.465Z,5.40
2017-11-12T08:13:38.045Z,5.37
2017-11-12T08:13:38.648Z,5.35
2017-11-12T08:14:56.203Z,5.50
2017-11-12T08:14:56.779Z,5.50
2017-11-12T08:14:57.378Z,5.45
2017-11-12T08:17:25.693Z,5.56
2017-11-12T09:16:27.024Z,7.13
2017-11-12T09:16:27.525Z,7.16
2017-11-12T09:19:56.423Z,7.34
2017-11-12T09:19:57.029Z,7.38
2017-11-12T09:19:57.575Z,7.41
2017-11-12T09:31:02.825Z,8.11
2017-11-12T09:31:03.327Z,8.04
2017-11-12T09:31:03.928Z,8.07
2017-11-12T09:31:04.526Z,8.04
2017-11-12T10:30:06.733Z,9.46
2017-11-12T10:30:07.259Z,9.45
2017-11-12T10:30:07.838Z,9.49
2017-11-12T10:30:08.435Z,9.42
2017-11-12T10:30:09.033Z,9.42
2017-11-12T10:30:09.632Z,9.50
2017-11-12T10:30:10.419Z,9.48
2017-11-12T10:30:10.832Z,9.43
2017-11-12T10:30:11.520Z,9.38
2017-11-12T10:30:12.100Z,9.46
2017-11-12T10:31:09.639Z,9.39
2017-11-12T10:31:10.204Z,9.46
2017-11-12T10:31:10.804Z,9.49
2017-11-12T10:35:53.222Z,9.50
2017-11-12T10:35:53.803Z,9.48
2017-11-12T10:35:54.432Z,9.52
2017-11-12T10:35:55.072Z,9.45
2017-11-12T10:35:55.592Z,9.56
2017-11-12T10:35:56.192Z,9.48
2017-11-12T10:35:56.791Z,9.50
2017-11-12T10:35:57.394Z,9.56
2017-11-12T10:35:57.990Z,9.50
2017-11-12T10:35:58.590Z,9.50
2017-11-12T10:35:59.198Z,9.52
2017-11-12T10:35:59.815Z,9.53
2017-11-12T10:40:49.782Z,9.53
2017-11-12T10:40:50.300Z,9.50
2017-11-12T10:40:50.882Z,9.58
2017-11-12T11:41:45.444Z,9.02
2017-11-12T11:41:46.014Z,9.05
2017-11-12T11:41:46.611Z,9.01
2017-11-12T11:41:47.211Z,9.04
2017-11-12T11:41:47.813Z,9.12
2017-11-12T11:41:48.411Z,9.05
2017-11-12T11:43:15.962Z,8.94
2017-11-12T11:43:16.536Z,8.91
2017-11-12T11:44:17.502Z,8.87
2017-11-12T11:44:18.076Z,8.90
2017-11-12T11:44:18.676Z,8.90
2017-11-12T11:44:19.276Z,8.87
2017-11-12T11:44:19.876Z,8.87
2017-11-12T11:44:20.476Z,8.94
2017-11-12T11:44:21.076Z,8.87
2017-11-12T11:44:21.679Z,8.90
2017-11-12T11:44:22.292Z,8.78
2017-11-12T11:44:22.877Z,8.73
2017-11-12T11:44:23.475Z,8.87
2017-11-12T11:44:24.075Z,8.88
2017-11-12T11:45:36.967Z,8.81
2017-11-12T11:45:37.545Z,8.79
2017-11-12T11:45:38.141Z,8.75
2017-11-12T11:45:38.740Z,8.78
2017-11-12T11:45:39.340Z,8.81
2017-11-12T11:45:39.941Z,8.79
2017-11-12T11:45:40.538Z,8.73
2017-11-12T11:45:41.140Z,8.75
2017-11-12T11:48:13.464Z,8.94
2017-11-12T11:48:14.033Z,8.87
2017-11-12T11:48:14.634Z,8.78
2017-11-12T11:48:15.231Z,8.83
2017-11-12T11:48:15.834Z,8.83
2017-11-12T11:48:16.432Z,8.87
2017-11-12T11:48:17.033Z,8.78
2017-11-12T11:48:17.631Z,8.94
2017-11-12T11:48:18.232Z,8.87
2017-11-12T11:48:18.837Z,8.87
2017-11-12T11:48:19.431Z,8.93
2017-11-12T11:48:20.030Z,8.88
2017-11-12T11:49:24.199Z,8.91
2017-11-12T11:49:24.770Z,8.96
2017-11-12T11:49:25.368Z,8.87
2017-11-12T11:49:25.970Z,8.90
2017-11-12T11:49:26.569Z,8.88
2017-11-12T11:49:27.168Z,8.87
2017-11-12T11:49:27.768Z,8.94
2017-11-12T11:49:28.367Z,8.86
2017-11-12T11:51:40.685Z,8.91
2017-11-12T11:51:41.258Z,8.90
2017-11-12T11:51:41.856Z,8.94
2017-11-12T11:51:42.456Z,8.93
2017-11-12T11:51:43.054Z,8.94
2017-11-12T11:51:43.655Z,8.93
2017-11-12T11:51:44.254Z,8.93
2017-11-12T11:51:44.852Z,8.88
2017-11-12T11:51:45.453Z,8.88
2017-11-12T11:51:46.053Z,8.97
2017-11-12T11:51:46.652Z,8.97
2017-11-12T11:51:47.252Z,8.93
2017-11-12T11:53:13.480Z,8.84
2017-11-12T11:53:14.046Z,8.86
2017-11-12T11:53:14.651Z,8.88
2017-11-12T11:53:15.248Z,8.81
2017-11-12T11:53:15.843Z,8.87
2017-11-12T11:56:31.576Z,9.12
2017-11-12T11:56:32.118Z,9.15
2017-11-12T11:56:32.676Z,9.10
2017-11-12T11:56:33.274Z,9.20
2017-11-12T11:56:33.875Z,9.10
2017-11-12T11:56:34.475Z,9.16
2017-11-12T11:56:35.075Z,9.15
2017-11-12T11:56:35.677Z,9.21
2017-11-12T11:56:36.277Z,9.13
2017-11-12T11:56:36.875Z,9.13
2017-11-12T12:23:19.200Z,8.71
2017-11-12T12:23:19.778Z,8.68
2017-11-12T12:23:20.378Z,8.66
2017-11-12T12:23:20.977Z,8.66
2017-11-12T12:23:21.576Z,8.71
2017-11-12T12:23:22.175Z,8.69
2017-11-12T12:23:22.776Z,8.69
2017-11-12T12:23:23.377Z,8.69
2017-11-12T12:23:23.982Z,8.71
2017-11-12T12:23:24.575Z,8.78
2017-11-12T12:23:25.184Z,8.71
2017-11-12T12:23:25.774Z,8.71
2017-11-12T12:23:26.381Z,8.63
2017-11-12T12:23:26.974Z,8.68
2017-11-12T12:23:27.572Z,8.62
2017-11-12T12:24:22.078Z,8.66
2017-11-12T12:24:22.651Z,8.71
2017-11-12T12:24:23.250Z,8.66
2017-11-12T12:24:23.850Z,8.66
2017-11-12T12:24:24.456Z,8.71
2017-11-12T12:24:25.050Z,8.66
2017-11-12T12:24:25.650Z,8.69
2017-11-12T12:25:20.649Z,8.81
2017-11-12T12:25:21.225Z,8.71
2017-11-12T12:25:21.825Z,8.79
2017-11-12T12:25:22.424Z,8.78
2017-11-12T12:25:23.026Z,8.79
2017-11-12T12:25:23.625Z,8.84
2017-11-12T12:25:24.226Z,8.83
2017-11-12T12:26:22.704Z,8.81
2017-11-12T12:26:23.281Z,8.72
2017-11-12T12:26:23.879Z,8.71
2017-11-12T12:26:24.477Z,8.78
2017-11-12T12:26:25.082Z,8.78
2017-11-12T12:26:25.678Z,8.79
2017-11-12T12:26:26.277Z,8.71
2017-11-12T12:26:26.877Z,8.83
2017-11-12T12:26:27.476Z,8.69
2017-11-12T12:26:28.086Z,8.78
2017-11-12T12:26:28.677Z,8.75
2017-11-12T12:26:29.275Z,8.69
2017-11-12T12:26:29.889Z,8.72
2017-11-12T12:26:30.484Z,8.83
2017-11-12T12:26:31.075Z,8.73
2017-11-12T12:26:31.674Z,8.72
2017-11-12T12:26:32.273Z,8.78
2017-11-12T12:33:02.943Z,8.88
2017-11-12T12:33:03.452Z,8.75
2017-11-12T12:33:04.048Z,8.81
2017-11-12T12:33:04.645Z,8.78
2017-11-12T12:33:05.244Z,8.81
2017-11-12T12:33:05.843Z,8.75
2017-11-12T12:33:06.442Z,8.78
2017-11-12T12:33:07.043Z,8.79
2017-11-12T12:33:07.642Z,8.78
2017-11-12T12:33:08.241Z,8.81
2017-11-12T12:33:08.849Z,8.76
2017-11-12T12:33:09.442Z,8.83
2017-11-12T12:34:24.503Z,8.83
2017-11-12T12:34:25.078Z,8.83
2017-11-12T12:34:25.679Z,8.84
2017-11-12T12:34:26.277Z,8.79
2017-11-12T12:34:26.877Z,8.83
2017-11-12T12:34:27.477Z,8.81
2017-11-12T12:36:06.494Z,9.01
2017-11-12T12:36:07.069Z,8.99
2017-11-12T12:36:07.676Z,8.96
2017-11-12T12:36:08.268Z,8.97
2017-11-12T12:36:08.867Z,8.96
2017-11-12T12:36:09.468Z,8.94
2017-11-12T12:36:10.066Z,9.01
2017-11-12T12:36:10.669Z,8.94
2017-11-12T12:36:11.268Z,8.94
2017-11-12T12:36:11.868Z,9.01
2017-11-12T12:36:12.466Z,8.99
2017-11-12T12:36:13.065Z,8.97
2017-11-12T12:36:13.666Z,8.94
2017-11-12T12:36:14.265Z,9.01
2017-11-12T12:36:14.865Z,8.94
2017-11-12T12:36:15.475Z,8.97
2017-11-12T14:07:32.084Z,8.68
2017-11-12T14:07:32.654Z,8.76
2017-11-12T14:07:33.248Z,8.69
2017-11-12T14:07:33.848Z,8.72
2017-11-12T14:07:34.449Z,8.72
2017-11-12T14:07:35.050Z,8.71
2017-11-12T14:07:35.647Z,8.66
2017-11-12T14:07:36.247Z,8.75
2017-11-12T14:07:36.848Z,8.69
2017-11-12T14:07:37.447Z,8.69
2017-11-12T14:07:38.051Z,8.72
2017-11-12T14:07:38.648Z,8.72
2017-11-12T14:08:43.280Z,8.69
2017-11-12T14:08:43.852Z,8.72
2017-11-12T14:08:44.450Z,8.71
2017-11-12T14:08:45.047Z,8.71
2017-11-12T14:08:45.646Z,8.71
2017-11-12T14:08:46.252Z,8.72
2017-11-12T14:08:46.846Z,8.68
2017-11-12T14:14:15.565Z,8.78
2017-11-12T14:14:16.133Z,8.83
2017-11-12T14:14:16.733Z,8.83
2017-11-12T14:14:17.336Z,8.79
2017-11-12T14:14:17.932Z,8.81
2017-11-12T14:14:18.531Z,8.84
2017-11-12T14:14:19.137Z,8.73
2017-11-12T14:14:19.761Z,8.73
2017-11-12T14:14:20.331Z,8.83
2017-11-12T14:14:20.938Z,8.83
2017-11-12T14:14:21.530Z,8.78
2017-11-12T14:14:22.145Z,8.72
2017-11-12T14:17:25.028Z,9.01
2017-11-12T14:17:25.601Z,8.99
2017-11-12T14:17:26.203Z,8.97
2017-11-12T14:17:26.801Z,8.96
2017-11-12T14:17:27.402Z,9.01
2017-11-12T14:17:28.002Z,8.94
2017-11-12T14:17:28.599Z,8.96
2017-11-12T14:17:29.201Z,8.96
2017-11-12T14:17:29.799Z,8.97
2017-11-12T14:17:30.399Z,8.97
2017-11-12T14:17:30.998Z,8.97
2017-11-12T14:17:31.607Z,9.01
2017-11-12T15:22:20.202Z,7.78
2017-11-12T15:22:20.696Z,7.81
2017-11-12T15:22:21.296Z,7.77
2017-11-12T15:22:21.895Z,7.81
2017-11-12T15:22:22.496Z,7.82
2017-11-12T15:22:23.095Z,7.79
2017-11-12T15:22:23.695Z,7.79
2017-11-12T15:22:24.301Z,7.82
2017-11-12T15:22:24.894Z,7.81
2017-11-12T15:22:25.592Z,7.77
2017-11-12T15:22:26.662Z,7.78
2017-11-12T15:22:27.169Z,7.79
2017-11-12T15:22:27.762Z,7.85
2017-11-12T15:22:28.367Z,7.82
2017-11-12T15:22:28.961Z,7.81
2017-11-12T15:22:29.561Z,7.81
2017-11-12T15:40:06.314Z,7.17
2017-11-12T15:40:06.918Z,7.24
2017-11-12T15:40:07.532Z,7.24
2017-11-12T15:40:08.091Z,7.20
2017-11-12T15:40:08.737Z,7.27
2017-11-12T15:40:09.314Z,7.23
2017-11-12T15:40:09.929Z,7.23
2017-11-12T15:40:10.577Z,7.26
2017-11-12T15:40:11.094Z,7.20
2017-11-12T15:40:11.866Z,7.20
2017-11-12T15:40:12.308Z,7.22
2017-11-12T15:44:37.681Z,7.13
2017-11-12T15:44:38.185Z,7.07
2017-11-12T15:44:38.800Z,7.08
2017-11-12T15:44:39.381Z,7.01
2017-11-12T15:44:39.983Z,7.04
2017-11-12T15:44:40.581Z,6.99
2017-11-12T15:44:41.182Z,7.04
2017-11-12T15:44:41.790Z,7.01
2017-11-12T15:44:42.380Z,7.04
2017-11-12T15:44:43.638Z,7.04
2017-11-12T15:56:24.764Z,7.09
2017-11-12T15:56:25.334Z,7.09
2017-11-12T15:56:25.939Z,7.12
2017-11-12T15:56:26.535Z,7.12
2017-11-12T15:56:27.137Z,7.19
2017-11-12T15:56:27.734Z,7.17
2017-11-12T15:56:28.335Z,7.08
2017-11-12T15:59:50.749Z,7.12
2017-11-12T15:59:51.254Z,7.19
2017-11-12T15:59:51.879Z,7.16
2017-11-12T15:59:52.467Z,7.17
2017-11-12T15:59:53.054Z,7.17
2017-11-12T15:59:53.651Z,7.22
2017-11-12T15:59:54.258Z,7.08
2017-11-12T15:59:54.851Z,7.16
2017-11-12T15:59:55.452Z,7.08
2017-11-12T15:59:56.051Z,7.22
2017-11-12T15:59:56.661Z,7.15
2017-11-12T15:59:57.247Z,7.22
2017-11-12T16:01:06.788Z,7.17
2017-11-12T16:01:07.517Z,7.26
2017-11-12T16:01:07.949Z,7.23
2017-11-12T16:01:08.564Z,7.17
2017-11-12T16:01:09.164Z,7.19
2017-11-12T16:01:09.804Z,7.20
2017-11-12T16:01:10.383Z,7.20
2017-11-12T16:01:11.106Z,7.16
2017-11-12T16:01:12.131Z,7.16
2017-11-12T16:01:12.282Z,7.17
2017-11-12T16:01:12.866Z,7.16
2017-11-12T16:01:13.516Z,7.23
2017-11-12T16:01:14.024Z,7.15
2017-11-12T16:01:14.664Z,7.23
2017-11-12T16:01:15.298Z,7.17
2017-11-12T16:12:24.417Z,7.34
2017-11-12T16:15:56.662Z,7.24
2017-11-12T16:15:57.233Z,7.32
2017-11-12T16:15:57.832Z,7.24
2017-11-12T16:15:58.429Z,7.26
2017-11-12T16:15:59.030Z,7.26
2017-11-12T16:15:59.630Z,7.38
2017-11-12T16:16:00.230Z,7.23
2017-11-12T16:16:00.829Z,7.23
2017-11-12T16:16:01.431Z,7.31
2017-11-12T16:16:02.032Z,7.22
2017-11-12T16:16:02.644Z,7.26
2017-11-12T16:16:03.235Z,7.29
2017-11-12T16:16:59.814Z,7.29
2017-11-12T16:17:00.310Z,7.22
2017-11-12T16:17:00.914Z,7.31
2017-11-12T16:17:01.510Z,7.24
2017-11-12T16:18:05.560Z,7.26
2017-11-12T16:18:06.133Z,7.20
2017-11-12T16:18:06.733Z,7.23
2017-11-12T16:18:07.335Z,7.26
2017-11-12T16:18:07.975Z,7.23
2017-11-12T16:18:08.585Z,7.24
2017-11-12T16:18:09.138Z,7.22
2017-11-12T16:56:04.375Z,6.97
2017-11-12T18:10:46.396Z,7.38
2017-11-12T18:10:46.897Z,7.32
2017-11-12T18:10:47.497Z,7.31
2017-11-12T18:21:17.577Z,7.53
2017-11-12T18:21:18.079Z,7.53
2017-11-12T18:21:18.677Z,7.45
2017-11-12T18:21:19.277Z,7.56
2017-11-12T18:21:19.878Z,7.53
2017-11-12T18:21:20.475Z,7.53
2017-11-12T18:21:21.127Z,7.47
2017-11-12T19:00:08.404Z,7.22
2017-11-12T19:00:08.968Z,7.24
2017-11-12T19:00:09.481Z,7.27
2017-11-12T19:00:10.089Z,7.26
2017-11-12T19:00:10.699Z,7.19
2017-11-12T19:00:11.289Z,7.22
2017-11-12T19:00:11.879Z,7.24
2017-11-12T19:00:12.479Z,7.24
2017-11-12T19:00:13.078Z,7.19
2017-11-12T19:01:41.396Z,7.23
2017-11-12T19:01:41.971Z,7.22
2017-11-12T19:01:42.566Z,7.23
2017-11-12T21:43:49.562Z,4.33
2017-11-12T21:52:41.050Z,4.15
2017-11-12T21:52:41.626Z,4.25
2017-11-12T21:52:42.215Z,4.21
2017-11-12T21:52:42.803Z,4.18
2017-11-12T21:52:43.398Z,4.25
2017-11-12T21:52:44.041Z,4.12
2017-11-12T22:06:13.072Z,4.37
2017-11-12T22:06:13.639Z,4.29
2017-11-12T22:06:14.239Z,4.34
2017-11-12T22:06:14.874Z,4.32
2017-11-12T22:06:15.437Z,4.36
2017-11-12T22:09:39.256Z,4.33
2017-11-12T22:09:39.757Z,4.34
2017-11-12T22:09:40.357Z,4.29
2017-11-12T22:09:40.957Z,4.34
2017-11-12T22:09:41.585Z,4.29
2017-11-12T22:09:42.170Z,4.34
2017-11-12T22:09:42.754Z,4.32
2017-11-12T22:09:43.361Z,4.32
2017-11-12T22:09:43.954Z,4.28
2017-11-12T22:09:44.553Z,4.33
2017-11-12T22:13:06.347Z,4.33
2017-11-12T22:13:06.845Z,4.43
2017-11-12T22:13:07.443Z,4.32
2017-11-12T22:13:08.043Z,4.32
2017-11-12T22:13:08.641Z,4.40
2017-11-12T22:13:09.241Z,4.37
2017-11-12T22:13:09.841Z,4.32
2017-11-12T22:13:10.447Z,4.39
2017-11-12T22:13:11.040Z,4.32
2017-11-12T22:13:11.640Z,4.34
2017-11-12T22:13:12.239Z,4.34
2017-11-12T22:13:12.842Z,4.33
2017-11-12T22:13:13.440Z,4.37
2017-11-12T22:13:14.064Z,4.36
2017-11-12T22:13:14.644Z,4.39
2017-11-12T22:13:15.240Z,4.32
2017-11-12T22:15:38.105Z,4.36
2017-11-12T22:15:38.678Z,4.36
2017-11-12T22:15:39.274Z,4.37
2017-11-12T22:15:39.917Z,4.29
2017-11-12T22:15:40.473Z,4.36
2017-11-12T22:15:41.074Z,4.39
2017-11-12T22:15:41.677Z,4.33
2017-11-12T22:15:42.316Z,4.37
2017-11-12T22:15:42.876Z,4.37
2017-11-12T22:15:43.503Z,4.36
2017-11-12T22:18:15.798Z,4.39
2017-11-12T22:18:16.363Z,4.34
2017-11-12T22:18:16.964Z,4.37
2017-11-12T22:18:17.607Z,4.39
2017-11-12T22:18:18.158Z,4.37
2017-11-12T22:18:18.812Z,4.39
2017-11-12T22:18:19.360Z,4.36
2017-11-12T22:18:19.960Z,4.42
2017-11-12T22:18:20.558Z,4.40
2017-11-12T22:18:21.159Z,4.36
2017-11-12T22:18:21.760Z,4.42
2017-11-12T22:18:22.402Z,4.39
